createdAt,value
2023-04-26T00:01:28.434Z,3.30
2023-04-26T00:04:30.883Z,3.60
2023-04-26T00:07:33.415Z,3.50
2023-04-26T00:10:35.185Z,4.10
2023-04-26T00:13:37.841Z,3.70
2023-04-26T00:16:39.747Z,3.30
2023-04-26T00:19:41.586Z,3.40
2023-04-26T00:22:44.018Z,3.30
2023-04-26T00:28:47.472Z,3.50
2023-04-26T00:31:49.335Z,3.20
2023-04-26T00:34:51.122Z,3.50
2023-04-26T00:37:52.842Z,2.80
2023-04-26T00:40:54.787Z,3.30
2023-04-26T00:43:56.515Z,2.20
2023-04-26T00:46:58.220Z,3.00
2023-04-26T00:50:01.310Z,3.10
2023-04-26T00:53:03.566Z,2.80
2023-04-26T00:59:11.088Z,2.40
2023-04-26T01:02:13.177Z,3.20
2023-04-26T01:05:15.040Z,2.50
2023-04-26T01:08:20.440Z,3.10
2023-04-26T01:11:22.770Z,3.20
2023-04-26T01:14:24.681Z,3.00
2023-04-26T01:17:26.407Z,2.90
2023-04-26T01:20:28.404Z,3.70
2023-04-26T01:23:30.474Z,2.50
2023-04-26T01:26:33.793Z,3.00
2023-04-26T01:29:35.811Z,2.90
2023-04-26T01:32:39.095Z,3.00
2023-04-26T01:35:41.531Z,3.40
2023-04-26T01:38:43.381Z,3.20
2023-04-26T01:41:45.156Z,3.50
2023-04-26T01:44:46.853Z,3.20
2023-04-26T01:47:48.646Z,3.20
2023-04-26T01:50:50.405Z,3.20
2023-04-26T01:53:52.255Z,3.40
2023-04-26T01:56:53.958Z,3.30
2023-04-26T01:59:56.204Z,3.50
2023-04-26T02:02:58.026Z,3.30
2023-04-26T02:06:00.073Z,3.30
2023-04-26T02:09:05.336Z,3.60
2023-04-26T02:12:07.140Z,3.00
2023-04-26T02:15:09.132Z,3.20
2023-04-26T02:18:11.023Z,3.10
2023-04-26T02:21:12.811Z,3.30
2023-04-26T02:24:14.510Z,3.20
2023-04-26T02:27:16.176Z,3.10
2023-04-26T02:30:18.003Z,3.00
2023-04-26T02:33:19.712Z,2.10
2023-04-26T02:36:21.646Z,3.10
2023-04-26T02:39:23.887Z,3.60
2023-04-26T02:45:27.384Z,3.10
2023-04-26T02:48:29.169Z,3.80
2023-04-26T02:51:32.922Z,3.90
2023-04-26T02:54:35.056Z,3.30
2023-04-26T02:57:36.743Z,3.30
2023-04-26T03:00:46.593Z,4.00
2023-04-26T03:03:48.709Z,4.00
2023-04-26T03:06:50.433Z,4.20
2023-04-26T03:09:52.169Z,2.50
2023-04-26T03:12:53.965Z,3.90
2023-04-26T03:15:55.833Z,3.30
2023-04-26T03:18:57.627Z,4.70
2023-04-26T03:21:59.457Z,4.90
2023-04-26T03:25:01.473Z,5.00
2023-04-26T03:28:03.818Z,5.00
2023-04-26T03:31:05.619Z,5.30
2023-04-26T03:34:07.464Z,5.30
2023-04-26T03:37:09.296Z,5.00
2023-04-26T03:40:11.986Z,5.70
2023-04-26T03:43:13.675Z,5.30
2023-04-26T03:46:15.574Z,5.70
2023-04-26T03:49:17.387Z,4.50
2023-04-26T03:52:19.398Z,5.20
2023-04-26T03:55:21.349Z,5.40
2023-04-26T03:58:25.341Z,5.10
2023-04-26T04:01:27.124Z,4.60
2023-04-26T04:04:29.139Z,5.20
2023-04-26T04:07:32.301Z,5.00
2023-04-26T04:10:34.036Z,4.60
2023-04-26T04:13:35.872Z,4.90
2023-04-26T04:16:37.918Z,4.00
2023-04-26T04:19:39.701Z,4.70
2023-04-26T04:22:41.573Z,3.10
2023-04-26T04:25:44.869Z,4.70
2023-04-26T04:28:48.050Z,5.10
2023-04-26T04:31:50.190Z,4.90
2023-04-26T04:37:58.300Z,5.20
2023-04-26T04:41:00.292Z,5.50
2023-04-26T04:44:03.399Z,5.50
2023-04-26T04:47:05.581Z,5.20
2023-04-26T04:50:08.727Z,4.60
2023-04-26T04:53:12.058Z,4.90
2023-04-26T04:56:15.189Z,5.00
2023-04-26T04:59:17.043Z,5.10
2023-04-26T05:02:19.521Z,4.40
2023-04-26T05:05:21.779Z,5.40
2023-04-26T05:08:23.500Z,5.10
2023-04-26T05:11:25.600Z,4.40
2023-04-26T05:14:28.739Z,4.50
2023-04-26T05:17:31.809Z,4.40
2023-04-26T05:20:36.579Z,3.90
2023-04-26T05:23:38.291Z,4.20
2023-04-26T05:26:40.262Z,4.30
2023-04-26T05:29:54.660Z,4.10
2023-04-26T05:33:19.656Z,3.20
2023-04-26T05:36:30.182Z,3.30
2023-04-26T05:39:32.186Z,2.90
2023-04-26T05:42:34.262Z,2.50
2023-04-26T05:45:36.117Z,2.80
2023-04-26T05:48:38.287Z,2.20
2023-04-26T05:51:41.879Z,2.40
2023-04-26T05:54:43.524Z,2.20
2023-04-26T05:57:45.350Z,2.60
2023-04-26T06:00:47.187Z,2.20
2023-04-26T06:03:49.797Z,2.80
2023-04-26T06:06:53.507Z,2.60
2023-04-26T06:09:56.156Z,2.40
2023-04-26T06:12:58.038Z,2.20
2023-04-26T06:16:00.461Z,2.20
2023-04-26T06:19:02.262Z,2.00
2023-04-26T06:22:04.199Z,2.20
2023-04-26T06:25:07.277Z,2.00
2023-04-26T06:28:13.818Z,2.10
2023-04-26T06:31:15.700Z,2.20
2023-04-26T06:34:17.547Z,2.40
2023-04-26T06:37:19.256Z,2.50
2023-04-26T06:40:21.470Z,2.20
2023-04-26T06:43:23.258Z,2.40
2023-04-26T06:46:37.652Z,2.30
2023-04-26T06:49:39.436Z,2.10
2023-04-26T06:52:41.104Z,2.90
2023-04-26T06:55:42.773Z,2.30
2023-04-26T06:59:01.232Z,2.30
2023-04-26T07:02:03.321Z,2.10
2023-04-26T07:05:05.523Z,2.10
2023-04-26T07:08:07.764Z,1.60
2023-04-26T07:11:10.839Z,1.90
2023-04-26T07:14:12.594Z,2.40
2023-04-26T07:17:14.371Z,1.70
2023-04-26T07:20:19.229Z,2.10
2023-04-26T07:23:20.941Z,2.10
2023-04-26T07:26:23.891Z,2.00
2023-04-26T07:29:25.661Z,2.50
2023-04-26T07:32:27.547Z,1.80
2023-04-26T07:35:29.396Z,2.10
2023-04-26T07:38:31.163Z,2.40
2023-04-26T07:41:32.857Z,1.90
2023-04-26T07:44:34.524Z,1.70
2023-04-26T07:47:36.793Z,1.30
2023-04-26T07:53:40.719Z,1.50
2023-04-26T07:56:42.412Z,1.20
2023-04-26T07:59:44.097Z,1.40
2023-04-26T08:02:48.810Z,1.40
2023-04-26T08:05:51.162Z,1.30
2023-04-26T08:08:53.348Z,1.40
2023-04-26T08:11:55.108Z,1.70
2023-04-26T08:14:56.881Z,1.40
2023-04-26T08:17:58.825Z,1.40
2023-04-26T08:21:00.833Z,1.50
2023-04-26T08:24:03.124Z,1.50
2023-04-26T08:30:07.768Z,1.10
2023-04-26T08:33:09.882Z,1.50
2023-04-26T08:36:12.205Z,1.30
2023-04-26T08:39:13.905Z,1.10
2023-04-26T08:42:16.967Z,2.30
2023-04-26T08:45:20.896Z,2.30
2023-04-26T08:48:22.703Z,1.40
2023-04-26T08:51:25.353Z,1.10
2023-04-26T08:54:27.826Z,1.00
2023-04-26T08:57:31.999Z,1.10
2023-04-26T09:00:36.572Z,5.10
2023-04-26T09:03:38.490Z,1.60
2023-04-26T09:06:41.016Z,1.60
2023-04-26T09:12:46.190Z,1.30
2023-04-26T09:15:48.277Z,1.30
2023-04-26T09:18:54.825Z,1.50
2023-04-26T09:21:56.943Z,1.20
2023-04-26T09:24:59.245Z,1.00
2023-04-26T09:28:17.991Z,1.40
2023-04-26T09:31:42.810Z,2.00
2023-04-26T09:34:48.354Z,1.40
2023-04-26T09:38:13.244Z,1.40
2023-04-26T09:41:16.250Z,1.80
2023-04-26T09:44:25.271Z,1.50
2023-04-26T09:47:27.120Z,1.50
2023-04-26T09:50:30.899Z,1.60
2023-04-26T09:53:47.124Z,2.10
2023-04-26T09:57:02.144Z,1.70
2023-04-26T10:00:11.445Z,1.10
2023-04-26T10:03:13.674Z,1.20
2023-04-26T10:09:17.902Z,1.20
2023-04-26T10:12:20.289Z,0.90
2023-04-26T10:15:22.257Z,0.80
2023-04-26T10:18:24.008Z,1.30
2023-04-26T10:21:34.753Z,1.00
2023-04-26T10:24:36.885Z,1.20
2023-04-26T10:27:44.877Z,0.90
2023-04-26T10:30:57.566Z,1.20
2023-04-26T10:34:19.321Z,1.00
2023-04-26T10:37:21.279Z,0.90
2023-04-26T10:40:25.123Z,1.20
2023-04-26T10:43:27.645Z,1.10
2023-04-26T10:46:35.914Z,1.00
2023-04-26T10:49:47.842Z,1.60
2023-04-26T10:53:02.936Z,1.40
2023-04-26T10:56:04.898Z,1.00
2023-04-26T10:59:22.542Z,0.90
2023-04-26T11:03:05.799Z,1.00
2023-04-26T11:06:09.372Z,1.20
2023-04-26T11:09:36.934Z,0.90
2023-04-26T11:12:41.544Z,1.00
2023-04-26T11:15:43.460Z,2.40
2023-04-26T11:18:46.633Z,1.60
2023-04-26T11:21:48.668Z,1.50
2023-04-26T11:24:50.933Z,0.90
2023-04-26T11:30:59.077Z,1.40
2023-04-26T11:34:04.302Z,2.10
2023-04-26T11:37:06.674Z,1.00
2023-04-26T11:40:11.242Z,1.00
2023-04-26T11:43:13.411Z,1.30
2023-04-26T11:46:16.161Z,1.30
2023-04-26T11:49:18.175Z,1.10
2023-04-26T11:52:20.096Z,0.90
2023-04-26T11:55:28.025Z,1.80
2023-04-26T11:58:29.840Z,1.30
2023-04-26T12:01:32.104Z,0.70
2023-04-26T12:04:34.205Z,0.90
2023-04-26T12:07:37.346Z,1.00
2023-04-26T12:10:39.190Z,0.80
2023-04-26T12:13:40.959Z,1.10
2023-04-26T12:16:42.916Z,1.30
2023-04-26T12:19:50.727Z,1.10
2023-04-26T12:23:19.168Z,1.00
2023-04-26T12:26:21.407Z,1.00
2023-04-26T12:29:29.868Z,1.00
2023-04-26T12:32:31.762Z,0.90
2023-04-26T12:35:34.200Z,1.60
2023-04-26T12:38:36.655Z,1.00
2023-04-26T12:41:40.127Z,1.10
2023-04-26T12:44:41.934Z,0.90
2023-04-26T12:47:45.320Z,1.10
2023-04-26T12:50:47.120Z,1.00
2023-04-26T12:53:50.238Z,1.20
2023-04-26T12:56:52.115Z,1.10
2023-04-26T12:59:54.062Z,1.00
2023-04-26T13:02:55.924Z,1.40
2023-04-26T13:05:57.830Z,1.70
2023-04-26T13:08:59.617Z,1.70
2023-04-26T13:12:01.456Z,1.00
2023-04-26T13:15:03.770Z,1.20
2023-04-26T13:21:07.979Z,1.00
2023-04-26T13:24:10.092Z,1.20
2023-04-26T13:27:12.618Z,1.00
2023-04-26T13:30:14.394Z,1.70
2023-04-26T13:33:16.178Z,1.50
2023-04-26T13:36:18.194Z,0.80
2023-04-26T13:39:19.956Z,1.20
2023-04-26T13:42:21.793Z,1.70
2023-04-26T13:45:23.492Z,1.10
2023-04-26T13:48:25.240Z,1.10
2023-04-26T13:51:29.895Z,1.20
2023-04-26T13:54:31.680Z,1.00
2023-04-26T13:57:33.415Z,0.90
2023-04-26T14:00:35.667Z,1.20
2023-04-26T14:06:39.265Z,1.20
2023-04-26T14:09:41.016Z,1.40
2023-04-26T14:12:42.846Z,1.70
2023-04-26T14:15:44.749Z,1.30
2023-04-26T14:18:47.192Z,1.30
2023-04-26T14:21:48.922Z,1.60
2023-04-26T14:24:50.626Z,1.40
2023-04-26T14:27:53.868Z,1.30
2023-04-26T14:30:55.753Z,1.40
2023-04-26T14:33:57.840Z,1.90
2023-04-26T14:37:01.007Z,1.20
2023-04-26T14:40:04.035Z,1.00
2023-04-26T14:43:05.766Z,1.20
2023-04-26T14:46:07.527Z,1.20
2023-04-26T14:49:09.402Z,1.00
2023-04-26T14:52:11.115Z,1.20
2023-04-26T14:55:19.601Z,1.60
2023-04-26T14:58:22.354Z,1.10
2023-04-26T15:01:24.348Z,1.70
2023-04-26T15:04:26.173Z,2.10
2023-04-26T15:07:32.136Z,2.30
2023-04-26T15:10:35.467Z,3.10
2023-04-26T15:13:37.147Z,1.90
2023-04-26T15:16:38.953Z,2.10
2023-04-26T15:19:41.002Z,1.50
2023-04-26T15:22:42.763Z,1.70
2023-04-26T15:25:44.393Z,3.20
2023-04-26T15:28:46.061Z,2.20
2023-04-26T15:31:48.031Z,2.60
2023-04-26T15:34:49.856Z,1.70
2023-04-26T15:37:53.272Z,1.90
2023-04-26T15:40:55.194Z,1.80
2023-04-26T15:43:56.947Z,3.00
2023-04-26T15:47:00.775Z,2.20
2023-04-26T15:50:05.963Z,3.70
2023-04-26T15:53:07.701Z,1.30
2023-04-26T15:56:18.899Z,1.20
2023-04-26T15:59:21.011Z,1.90
2023-04-26T16:02:22.777Z,1.40
2023-04-26T16:05:24.584Z,3.30
2023-04-26T16:08:39.577Z,3.60
2023-04-26T16:11:42.211Z,2.00
2023-04-26T16:14:43.920Z,1.70
2023-04-26T16:17:45.720Z,1.70
2023-04-26T16:20:48.117Z,2.20
2023-04-26T16:23:51.263Z,1.60
2023-04-26T16:26:53.003Z,2.20
2023-04-26T16:29:54.809Z,2.40
2023-04-26T16:32:56.553Z,2.00
2023-04-26T16:35:58.564Z,1.90
2023-04-26T16:39:00.426Z,2.40
2023-04-26T16:42:02.811Z,2.30
2023-04-26T16:45:05.139Z,2.00
2023-04-26T16:48:06.893Z,2.00
2023-04-26T16:51:08.839Z,1.70
2023-04-26T16:54:11.476Z,2.30
2023-04-26T16:57:13.650Z,2.40
2023-04-26T17:03:18.184Z,3.40
2023-04-26T17:06:20.570Z,3.30
2023-04-26T17:09:22.261Z,2.90
2023-04-26T17:12:24.122Z,2.10
2023-04-26T17:15:30.011Z,2.30
2023-04-26T17:18:36.030Z,2.50
2023-04-26T17:21:38.423Z,2.70
2023-04-26T17:27:41.883Z,2.90
2023-04-26T17:30:46.687Z,3.50
2023-04-26T17:33:49.730Z,3.20
2023-04-26T17:39:54.444Z,3.10
2023-04-26T17:42:56.339Z,4.30
2023-04-26T17:45:58.453Z,2.30
2023-04-26T17:49:00.523Z,2.10
2023-04-26T17:52:02.750Z,2.90
2023-04-26T17:55:07.512Z,2.70
2023-04-26T17:58:10.491Z,2.90
2023-04-26T18:01:12.261Z,3.10
2023-04-26T18:04:17.366Z,2.60
2023-04-26T18:07:19.166Z,2.30
2023-04-26T18:10:23.916Z,2.40
2023-04-26T18:13:27.932Z,2.40
2023-04-26T18:16:35.183Z,2.60
2023-04-26T18:19:37.674Z,3.00
2023-04-26T18:22:42.336Z,2.70
2023-04-26T18:25:44.787Z,3.00
2023-04-26T18:28:46.577Z,2.80
2023-04-26T18:31:49.183Z,3.50
2023-04-26T18:34:51.613Z,3.80
2023-04-26T18:40:55.182Z,5.50
2023-04-26T18:43:56.945Z,6.40
2023-04-26T18:46:58.890Z,5.90
2023-04-26T18:50:01.119Z,5.00
2023-04-26T18:53:03.252Z,4.90
2023-04-26T18:56:05.290Z,5.80
2023-04-26T18:59:07.616Z,5.70
2023-04-26T19:05:12.535Z,4.60
2023-04-26T19:08:14.474Z,5.10
2023-04-26T19:11:16.333Z,4.90
2023-04-26T19:14:18.086Z,5.40
2023-04-26T19:17:20.169Z,5.70
2023-04-26T19:20:22.042Z,6.10
2023-04-26T19:23:23.942Z,6.00
2023-04-26T19:26:25.753Z,5.50
2023-04-26T19:29:27.561Z,5.70
2023-04-26T19:32:29.335Z,6.00
2023-04-26T19:35:31.008Z,5.40
2023-04-26T19:38:32.726Z,4.90
2023-04-26T19:41:34.423Z,5.30
2023-04-26T19:44:38.685Z,4.90
2023-04-26T19:47:41.876Z,5.30
2023-04-26T19:50:45.748Z,5.40
2023-04-26T19:53:47.400Z,4.70
2023-04-26T19:56:49.200Z,5.30
2023-04-26T19:59:50.922Z,5.20
2023-04-26T20:02:52.774Z,5.30
2023-04-26T20:05:54.608Z,5.00
2023-04-26T20:08:56.324Z,4.40
2023-04-26T20:11:58.025Z,4.60
2023-04-26T20:14:59.714Z,5.00
2023-04-26T20:18:03.367Z,4.80
2023-04-26T20:21:05.503Z,5.20
2023-04-26T20:24:07.443Z,4.60
2023-04-26T20:27:09.130Z,5.20
2023-04-26T20:30:11.522Z,5.00
2023-04-26T20:33:13.823Z,4.70
2023-04-26T20:39:17.640Z,4.70
2023-04-26T20:42:19.331Z,4.50
2023-04-26T20:45:20.986Z,4.80
2023-04-26T20:48:23.513Z,4.80
2023-04-26T20:51:26.259Z,5.30
2023-04-26T20:54:27.976Z,4.80
2023-04-26T20:57:29.707Z,5.60
2023-04-26T21:00:31.459Z,5.60
2023-04-26T21:03:33.768Z,5.20
2023-04-26T21:06:35.656Z,5.30
2023-04-26T21:09:37.830Z,5.40
2023-04-26T21:12:41.123Z,6.10
2023-04-26T21:15:42.957Z,5.90
2023-04-26T21:18:44.720Z,5.80
2023-04-26T21:21:46.958Z,5.20
2023-04-26T21:27:53.054Z,5.90
2023-04-26T21:31:05.452Z,6.50
2023-04-26T21:37:10.232Z,6.60
2023-04-26T21:40:12.374Z,7.00
2023-04-26T21:43:17.035Z,7.00
2023-04-26T21:46:19.161Z,6.80
2023-04-26T21:49:20.948Z,7.20
2023-04-26T21:52:22.760Z,7.50
2023-04-26T21:55:24.547Z,5.40
2023-04-26T21:58:26.465Z,5.90
2023-04-26T22:01:28.569Z,5.60
2023-04-26T22:07:33.175Z,5.10
2023-04-26T22:10:35.794Z,5.00
2023-04-26T22:13:37.587Z,4.80
2023-04-26T22:16:39.462Z,4.60
2023-04-26T22:19:41.409Z,4.50
2023-04-26T22:22:43.162Z,4.50
2023-04-26T22:25:44.939Z,4.40
2023-04-26T22:28:46.637Z,4.80
2023-04-26T22:31:48.329Z,4.50
2023-04-26T22:34:50.282Z,4.30
2023-04-26T22:37:52.073Z,4.50
2023-04-26T22:40:53.919Z,4.40
2023-04-26T22:43:55.758Z,4.60
2023-04-26T22:46:58.803Z,4.70
2023-04-26T22:50:00.613Z,4.90
2023-04-26T22:53:02.471Z,4.70
2023-04-26T22:56:04.466Z,5.40
2023-04-26T22:59:06.722Z,6.90
2023-04-26T23:05:10.814Z,8.10
2023-04-26T23:11:14.274Z,7.80
2023-04-26T23:14:16.597Z,6.70
2023-04-26T23:20:22.195Z,6.60
2023-04-26T23:23:23.915Z,6.00
2023-04-26T23:26:25.722Z,6.10
2023-04-26T23:29:27.508Z,5.60
2023-04-26T23:32:29.375Z,5.50
2023-04-26T23:35:31.204Z,5.90
2023-04-26T23:38:32.925Z,6.80
2023-04-26T23:41:34.717Z,7.60
2023-04-26T23:44:36.413Z,7.50
2023-04-26T23:47:38.325Z,8.70
2023-04-26T23:50:40.644Z,9.10
2023-04-26T23:53:43.375Z,8.60
2023-04-26T23:56:45.173Z,8.40
2023-04-26T23:59:47.010Z,9.50
